createdAt,value
2023-04-01T00:00:04.569Z,5.57
2023-04-01T00:02:30.469Z,7.75
2023-04-01T00:04:56.530Z,7.35
2023-04-01T00:07:22.784Z,2.30
2023-04-01T00:09:48.535Z,2.85
2023-04-01T00:12:14.303Z,4.93
2023-04-01T00:14:40.251Z,2.38
2023-04-01T00:17:06.415Z,2.85
2023-04-01T00:19:32.882Z,6.30
2023-04-01T00:21:58.804Z,4.07
2023-04-01T00:24:24.533Z,3.38
2023-04-01T00:26:50.290Z,5.03
2023-04-01T00:29:16.140Z,6.45
2023-04-01T00:31:41.977Z,3.33
2023-04-01T00:34:07.706Z,3.00
2023-04-01T00:36:33.463Z,2.75
2023-04-01T00:38:59.723Z,3.28
2023-04-01T00:41:26.470Z,3.45
2023-04-01T00:43:52.646Z,5.35
2023-04-01T00:46:18.989Z,2.20
2023-04-01T00:48:47.827Z,3.58
2023-04-01T00:51:18.923Z,7.68
2023-04-01T00:53:47.257Z,4.03
2023-04-01T00:56:15.586Z,4.22
2023-04-01T00:58:49.202Z,3.72
2023-04-01T01:01:15.841Z,3.17
2023-04-01T01:03:41.661Z,5.28
2023-04-01T01:06:13.965Z,8.57
2023-04-01T01:08:50.613Z,4.32
2023-04-01T01:11:18.045Z,3.03
2023-04-01T01:13:46.529Z,2.20
2023-04-01T01:16:21.224Z,3.90
2023-04-01T01:18:50.012Z,3.83
2023-04-01T01:21:33.855Z,2.10
2023-04-01T01:24:08.631Z,2.38
2023-04-01T01:26:46.356Z,3.05
2023-04-01T01:29:30.962Z,6.72
2023-04-01T01:32:02.938Z,2.85
2023-04-01T01:34:31.428Z,6.25
2023-04-01T01:36:59.888Z,5.53
2023-04-01T01:39:30.696Z,3.03
2023-04-01T01:44:23.529Z,2.70
2023-04-01T01:46:50.059Z,3.92
2023-04-01T01:49:18.098Z,3.00
2023-04-01T01:51:43.883Z,2.63
2023-04-01T01:54:16.652Z,3.30
2023-04-01T01:56:45.107Z,2.28
2023-04-01T01:59:12.030Z,3.38
2023-04-01T02:01:40.424Z,2.90
2023-04-01T02:04:06.807Z,9.10
2023-04-01T02:06:35.159Z,5.20
2023-04-01T02:09:03.350Z,5.45
2023-04-01T02:11:32.085Z,2.88
2023-04-01T02:14:03.480Z,3.35
2023-04-01T02:16:32.668Z,4.43
2023-04-01T02:18:59.922Z,3.85
2023-04-01T02:21:28.226Z,3.80
2023-04-01T02:23:54.392Z,5.47
2023-04-01T02:26:21.050Z,4.97
2023-04-01T02:28:46.960Z,3.17
2023-04-01T02:31:13.179Z,4.32
2023-04-01T02:33:39.577Z,5.03
2023-04-01T02:36:05.717Z,6.25
2023-04-01T02:38:31.653Z,5.97
2023-04-01T02:41:01.179Z,6.35
2023-04-01T02:43:27.299Z,3.30
2023-04-01T02:45:53.448Z,5.53
2023-04-01T02:48:19.164Z,6.03
2023-04-01T02:50:44.964Z,2.85
2023-04-01T02:53:10.808Z,2.80
2023-04-01T02:55:36.571Z,4.22
2023-04-01T02:58:02.418Z,4.13
2023-04-01T03:00:28.215Z,6.30
2023-04-01T03:02:54.017Z,3.75
2023-04-01T03:05:20.229Z,4.47
2023-04-01T03:07:46.107Z,9.55
2023-04-01T03:10:11.847Z,5.30
2023-04-01T03:12:37.602Z,3.25
2023-04-01T03:15:11.193Z,4.43
2023-04-01T03:17:37.964Z,5.05
2023-04-01T03:20:05.223Z,13.25
2023-04-01T03:22:31.265Z,6.57
2023-04-01T03:24:56.971Z,6.32
2023-04-01T03:27:23.617Z,4.25
2023-04-01T03:29:49.360Z,7.13
2023-04-01T03:32:15.228Z,3.33
2023-04-01T03:34:41.076Z,3.25
2023-04-01T03:37:06.842Z,10.38
2023-04-01T03:39:32.585Z,6.22
2023-04-01T03:41:58.651Z,4.78
2023-04-01T03:44:24.520Z,10.48
2023-04-01T03:46:50.246Z,6.63
2023-04-01T03:49:16.136Z,6.47
2023-04-01T03:51:43.216Z,4.47
2023-04-01T03:54:09.294Z,6.15
2023-04-01T03:56:35.077Z,4.15
2023-04-01T03:59:04.630Z,4.75
2023-04-01T04:01:33.603Z,5.53
2023-04-01T04:03:59.780Z,4.47
2023-04-01T04:06:26.192Z,5.13
2023-04-01T04:08:52.249Z,7.18
2023-04-01T04:11:19.037Z,4.60
2023-04-01T04:13:44.906Z,10.25
2023-04-01T04:16:11.241Z,6.63
2023-04-01T04:18:37.454Z,5.13
2023-04-01T04:21:04.020Z,5.32
2023-04-01T04:23:30.876Z,6.55
2023-04-01T04:26:01.316Z,4.65
2023-04-01T04:28:27.314Z,7.75
2023-04-01T04:31:02.555Z,5.95
2023-04-01T04:33:28.509Z,4.30
2023-04-01T04:35:58.224Z,5.03
2023-04-01T04:38:24.155Z,4.88
2023-04-01T04:40:49.916Z,4.32
2023-04-01T04:43:17.052Z,9.15
2023-04-01T04:45:42.875Z,5.32
2023-04-01T04:48:09.521Z,5.80
2023-04-01T04:50:35.918Z,4.45
2023-04-01T04:53:02.036Z,5.85
2023-04-01T04:55:28.139Z,5.38
2023-04-01T04:57:53.890Z,8.70
2023-04-01T05:00:19.740Z,6.85
2023-04-01T05:02:45.576Z,6.15
2023-04-01T05:05:11.550Z,4.75
2023-04-01T05:07:37.377Z,10.32
2023-04-01T05:10:03.279Z,7.28
2023-04-01T05:12:29.249Z,6.00
2023-04-01T05:14:55.143Z,4.50
2023-04-01T05:17:21.209Z,8.82
2023-04-01T05:19:47.033Z,4.80
2023-04-01T05:22:12.774Z,3.75
2023-04-01T05:24:38.504Z,6.82
2023-04-01T05:27:04.287Z,4.57
2023-04-01T05:29:33.102Z,4.63
2023-04-01T05:32:11.045Z,7.28
2023-04-01T05:34:36.945Z,5.88
2023-04-01T05:37:03.005Z,4.50
2023-04-01T05:39:28.848Z,5.63
2023-04-01T05:41:54.600Z,6.38
2023-04-01T05:44:20.427Z,6.43
2023-04-01T05:46:46.210Z,6.43
2023-04-01T05:49:12.110Z,10.00
2023-04-01T05:51:38.250Z,5.05
2023-04-01T05:54:06.992Z,7.90
2023-04-01T05:56:32.738Z,4.63
2023-04-01T05:58:58.584Z,5.15
2023-04-01T06:01:27.393Z,4.93
2023-04-01T06:03:53.383Z,2.63
2023-04-01T06:06:26.795Z,4.25
2023-04-01T06:08:53.530Z,3.95
2023-04-01T06:11:44.247Z,2.60
2023-04-01T06:14:21.916Z,6.78
2023-04-01T06:17:00.009Z,3.38
2023-04-01T06:19:40.454Z,3.17
2023-04-01T06:22:16.364Z,4.45
2023-04-01T06:24:51.837Z,4.20
2023-04-01T06:27:36.416Z,7.03
2023-04-01T06:30:25.508Z,4.90
2023-04-01T06:33:00.275Z,9.43
2023-04-01T06:35:32.442Z,9.88
2023-04-01T06:38:20.923Z,2.67
2023-04-01T06:40:56.596Z,5.38
2023-04-01T06:43:25.565Z,3.80
2023-04-01T06:46:02.291Z,5.28
2023-04-01T06:48:56.574Z,4.25
2023-04-01T06:51:55.195Z,7.32
2023-04-01T06:54:24.597Z,9.50
2023-04-01T06:56:53.675Z,7.22
2023-04-01T06:59:21.212Z,5.43
2023-04-01T07:01:51.156Z,7.50
2023-04-01T07:04:20.283Z,5.43
2023-04-01T07:06:53.659Z,9.65
2023-04-01T07:09:29.358Z,3.40
2023-04-01T07:11:59.190Z,6.78
2023-04-01T07:14:29.373Z,5.25
2023-04-01T07:16:59.439Z,5.38
2023-04-01T07:19:29.713Z,3.35
2023-04-01T07:21:57.490Z,3.22
2023-04-01T07:24:23.337Z,4.38
2023-04-01T07:26:52.662Z,3.00
2023-04-01T07:29:18.847Z,6.88
2023-04-01T07:32:25.496Z,5.18
2023-04-01T07:35:04.749Z,3.97
2023-04-01T07:37:30.597Z,4.32
2023-04-01T07:39:56.759Z,8.35
2023-04-01T07:42:44.212Z,8.10
2023-04-01T07:45:19.067Z,4.65
2023-04-01T07:47:59.120Z,8.13
2023-04-01T07:50:29.623Z,5.55
2023-04-01T07:53:14.327Z,5.30
2023-04-01T07:55:46.123Z,6.30
2023-04-01T07:58:22.002Z,4.63
2023-04-01T08:01:00.936Z,6.15
2023-04-01T08:03:46.660Z,3.40
2023-04-01T08:06:19.307Z,4.97
2023-04-01T08:08:57.452Z,9.00
2023-04-01T08:11:30.122Z,4.65
2023-04-01T08:14:04.797Z,4.25
2023-04-01T08:16:38.366Z,8.52
2023-04-01T08:19:19.728Z,5.00
2023-04-01T08:21:51.517Z,3.97
2023-04-01T08:24:27.837Z,4.85
2023-04-01T08:26:59.469Z,2.38
2023-04-01T08:29:36.158Z,6.68
2023-04-01T08:32:37.799Z,7.25
2023-04-01T08:35:09.995Z,7.68
2023-04-01T08:37:38.236Z,5.43
2023-04-01T08:40:23.052Z,6.60
2023-04-01T08:42:52.020Z,7.15
2023-04-01T08:45:26.336Z,3.53
2023-04-01T08:48:11.302Z,2.97
2023-04-01T08:50:48.011Z,4.10
2023-04-01T08:53:30.048Z,3.38
2023-04-01T08:56:06.616Z,3.75
2023-04-01T08:58:54.910Z,2.00
2023-04-01T09:01:27.339Z,3.70
2023-04-01T09:04:14.216Z,4.72
2023-04-01T09:06:40.076Z,5.38
2023-04-01T09:09:16.401Z,2.70
2023-04-01T09:11:47.260Z,4.15
2023-04-01T09:14:31.523Z,4.38
2023-04-01T09:17:00.570Z,3.15
2023-04-01T09:19:45.856Z,5.97
2023-04-01T09:22:15.030Z,2.72
2023-04-01T09:24:59.939Z,4.45
2023-04-01T09:27:25.881Z,2.50
2023-04-01T09:30:04.168Z,2.53
2023-04-01T09:32:51.836Z,2.33
2023-04-01T09:35:22.821Z,4.85
2023-04-01T09:37:57.948Z,4.13
2023-04-01T09:40:35.865Z,1.40
2023-04-01T09:43:12.823Z,4.18
2023-04-01T09:45:44.872Z,3.47
2023-04-01T09:48:13.955Z,4.20
2023-04-01T09:50:58.942Z,4.10
2023-04-01T09:53:35.667Z,3.30
2023-04-01T09:56:21.668Z,5.45
2023-04-01T09:59:04.446Z,3.13
2023-04-01T10:01:51.876Z,2.17
2023-04-01T10:04:41.014Z,6.53
2023-04-01T10:07:12.425Z,3.53
2023-04-01T10:09:57.929Z,5.78
2023-04-01T10:15:52.939Z,5.18
2023-04-01T10:18:32.918Z,5.75
2023-04-01T10:21:18.657Z,6.22
2023-04-01T10:24:08.103Z,10.63
2023-04-01T10:26:34.145Z,7.55
2023-04-01T10:29:03.283Z,8.73
2023-04-01T10:34:58.631Z,10.65
2023-04-01T10:37:43.141Z,12.00
2023-04-01T10:40:18.398Z,11.30
2023-04-01T10:42:54.274Z,12.65
2023-04-01T10:45:36.623Z,13.52
2023-04-01T10:48:38.379Z,11.43
2023-04-01T10:51:29.088Z,11.73
2023-04-01T10:57:15.035Z,14.15
2023-04-01T10:59:47.268Z,15.48
2023-04-01T11:02:15.679Z,12.57
2023-04-01T11:05:00.443Z,13.48
2023-04-01T11:07:38.664Z,13.70
2023-04-01T11:10:25.533Z,10.38
2023-04-01T11:12:53.556Z,13.57
2023-04-01T11:15:24.075Z,12.25
2023-04-01T11:26:41.101Z,9.63
2023-04-01T11:29:08.951Z,9.63
2023-04-01T11:31:36.845Z,13.75
2023-04-01T11:34:25.546Z,10.35
2023-04-01T11:37:10.488Z,8.57
2023-04-01T11:39:47.307Z,9.48
2023-04-01T11:42:33.156Z,8.60
2023-04-01T11:51:20.064Z,7.80
2023-04-01T11:54:13.256Z,9.75
2023-04-01T11:57:14.477Z,9.48
2023-04-01T11:59:59.871Z,8.82
2023-04-01T12:05:36.945Z,8.93
2023-04-01T12:11:26.124Z,8.23
2023-04-01T12:14:00.422Z,9.10
2023-04-01T12:16:32.550Z,7.60
2023-04-01T12:19:18.036Z,7.28
2023-04-01T12:21:47.076Z,7.95
2023-04-01T12:24:36.003Z,9.73
2023-04-01T12:27:14.299Z,7.93
2023-04-01T12:29:43.360Z,7.22
2023-04-01T12:32:21.384Z,7.53
2023-04-01T12:35:04.302Z,8.35
2023-04-01T12:37:32.710Z,6.20
2023-04-01T12:40:17.972Z,7.47
2023-04-01T12:42:53.195Z,7.22
2023-04-01T12:45:30.204Z,7.38
2023-04-01T12:48:11.677Z,7.82
2023-04-01T12:53:04.771Z,9.32
2023-04-01T12:55:52.984Z,8.82
2023-04-01T12:58:31.337Z,10.40
2023-04-01T13:01:16.226Z,9.50
2023-04-01T13:03:54.587Z,9.40
2023-04-01T13:06:41.700Z,10.25
2023-04-01T13:09:22.904Z,12.25
2023-04-01T13:11:56.754Z,12.80
2023-04-01T13:14:48.844Z,14.20
2023-04-01T13:17:18.691Z,13.15
2023-04-01T13:20:07.572Z,13.87
2023-04-01T13:56:37.257Z,10.88
2023-04-01T13:59:22.717Z,11.00
2023-04-01T14:02:03.254Z,11.40
2023-04-01T14:04:55.584Z,14.90
2023-04-01T14:07:27.924Z,12.07
2023-04-01T14:10:12.787Z,11.82
2023-04-01T14:15:44.873Z,10.05
2023-04-01T14:18:18.529Z,13.50
2023-04-01T14:24:05.649Z,13.80
2023-04-01T14:26:42.327Z,12.18
2023-04-01T14:29:21.148Z,13.75
2023-04-01T14:32:04.963Z,13.32
2023-04-01T14:34:31.527Z,15.02
2023-04-01T14:37:21.663Z,16.42
2023-04-01T14:39:47.814Z,12.35
2023-04-01T14:56:06.831Z,7.15
2023-04-01T14:58:47.104Z,10.35
2023-04-01T15:01:31.666Z,8.70
2023-04-01T15:04:05.212Z,10.90
2023-04-01T15:06:41.449Z,12.10
2023-04-01T15:09:15.484Z,7.93
2023-04-01T15:11:57.060Z,20.48
2023-04-01T15:14:23.201Z,7.63
2023-04-01T15:17:24.090Z,8.63
2023-04-01T15:20:07.469Z,17.02
2023-04-01T15:25:24.420Z,12.77
2023-04-01T15:28:06.271Z,9.52
2023-04-01T15:48:11.619Z,9.50
2023-04-01T16:07:11.121Z,8.75
2023-04-01T16:09:38.766Z,8.70
2023-04-01T16:12:08.527Z,7.95
2023-04-01T16:14:42.072Z,12.73
2023-04-01T16:18:01.540Z,7.85
2023-04-01T16:20:39.884Z,8.18
2023-04-01T16:23:12.033Z,7.63
2023-04-01T16:25:42.483Z,6.88
2023-04-01T16:28:15.766Z,9.48
2023-04-01T16:36:46.707Z,7.18
2023-04-01T16:39:22.937Z,8.80
2023-04-01T16:41:58.737Z,8.48
2023-04-01T16:44:25.933Z,10.13
2023-04-01T16:47:09.596Z,9.52
2023-04-01T16:49:59.812Z,9.95
2023-04-01T16:53:03.692Z,8.70
2023-04-01T16:55:42.012Z,8.85
2023-04-01T16:58:13.065Z,10.55
2023-04-01T17:00:41.561Z,11.48
2023-04-01T17:03:07.842Z,8.50
2023-04-01T17:05:44.608Z,11.32
2023-04-01T17:08:37.201Z,9.50
2023-04-01T17:17:03.424Z,8.20
2023-04-01T17:19:32.861Z,6.50
2023-04-01T17:22:26.950Z,7.25
2023-04-01T17:25:12.653Z,7.57
2023-04-01T17:27:47.526Z,4.70
2023-04-01T17:30:26.147Z,7.93
2023-04-01T17:35:47.314Z,4.97
2023-04-01T17:38:13.740Z,5.72
2023-04-01T17:40:48.846Z,7.22
2023-04-01T17:43:39.950Z,5.80
2023-04-01T17:46:42.238Z,7.50
2023-04-01T17:49:26.985Z,9.05
2023-04-01T17:52:08.403Z,9.90
2023-04-01T17:54:40.451Z,9.43
2023-04-01T17:57:26.682Z,6.88
2023-04-01T18:00:11.406Z,9.73
2023-04-01T18:02:56.094Z,7.90
2023-04-01T18:05:37.625Z,4.68
2023-04-01T18:08:13.191Z,8.68
2023-04-01T18:11:00.359Z,5.93
2023-04-01T18:16:37.118Z,5.28
2023-04-01T18:19:09.636Z,5.28
2023-04-01T18:21:56.308Z,6.50
2023-04-01T18:24:28.026Z,6.78
2023-04-01T18:27:13.619Z,5.18
2023-04-01T18:29:57.814Z,6.10
2023-04-01T18:32:37.091Z,6.00
2023-04-01T18:35:15.096Z,6.32
2023-04-01T18:37:51.432Z,9.23
2023-04-01T18:40:36.066Z,4.90
2023-04-01T18:43:05.856Z,6.43
2023-04-01T18:45:43.849Z,7.10
2023-04-01T18:48:39.268Z,4.35
2023-04-01T18:51:19.243Z,4.68
2023-04-01T18:53:57.025Z,6.15
2023-04-01T18:56:26.120Z,5.05
2023-04-01T18:59:15.558Z,5.63
2023-04-01T19:01:48.344Z,5.05
2023-04-01T19:04:34.270Z,6.82
2023-04-01T19:07:02.440Z,4.70
2023-04-01T19:09:32.964Z,6.35
2023-04-01T19:11:59.159Z,5.32
2023-04-01T19:14:48.932Z,9.90
2023-04-01T19:17:39.327Z,6.72
2023-04-01T19:20:17.110Z,6.13
2023-04-01T19:22:52.968Z,6.30
2023-04-01T19:25:26.305Z,6.05
2023-04-01T19:28:13.082Z,9.13
2023-04-01T19:30:51.623Z,8.60
2023-04-01T19:33:32.987Z,5.63
2023-04-01T19:36:08.944Z,12.65
2023-04-01T19:38:39.801Z,9.65
2023-04-01T19:41:28.489Z,7.72
2023-04-01T19:43:58.039Z,7.63
2023-04-01T19:46:42.285Z,7.70
2023-04-01T19:49:16.477Z,6.70
2023-04-01T19:51:48.444Z,7.18
2023-04-01T19:54:33.207Z,7.15
2023-04-01T19:57:21.001Z,8.32
2023-04-01T19:59:56.680Z,8.13
2023-04-01T20:02:40.188Z,5.88
2023-04-01T20:05:26.393Z,8.43
2023-04-01T20:07:53.400Z,7.65
2023-04-01T20:10:19.198Z,6.28
2023-04-01T20:13:03.989Z,9.70
2023-04-01T20:15:38.313Z,7.55
2023-04-01T20:18:25.591Z,6.40
2023-04-01T20:20:56.827Z,9.80
2023-04-01T20:23:33.578Z,10.18
2023-04-01T20:26:02.737Z,8.32
2023-04-01T20:28:44.227Z,8.38
2023-04-01T20:31:27.542Z,14.75
2023-04-01T20:34:08.782Z,9.35
2023-04-01T20:36:40.948Z,9.65
2023-04-01T20:39:22.161Z,9.88
2023-04-01T20:42:08.353Z,11.50
2023-04-01T20:44:47.818Z,8.43
2023-04-01T20:47:48.849Z,7.32
2023-04-01T20:50:21.359Z,10.57
2023-04-01T20:52:55.983Z,11.90
2023-04-01T20:55:27.071Z,4.65
2023-04-01T20:58:11.516Z,9.60
2023-04-01T21:00:53.631Z,8.90
2023-04-01T21:03:38.591Z,10.00
2023-04-01T21:06:07.551Z,12.80
2023-04-01T21:08:52.310Z,10.70
2023-04-01T21:11:30.633Z,11.70
2023-04-01T21:14:02.243Z,11.25
2023-04-01T21:16:54.446Z,10.43
2023-04-01T21:19:26.365Z,6.65
2023-04-01T21:21:55.559Z,8.70
2023-04-01T21:24:36.688Z,11.70
2023-04-01T21:27:09.900Z,9.90
2023-04-01T21:29:53.465Z,16.00
2023-04-01T21:32:19.899Z,10.38
2023-04-01T21:34:49.592Z,11.07
2023-04-01T21:37:27.103Z,11.98
2023-04-01T21:40:01.749Z,13.50
2023-04-01T21:42:42.155Z,7.40
2023-04-01T21:45:13.966Z,9.25
2023-04-01T21:48:01.770Z,10.50
2023-04-01T21:50:43.336Z,14.05
2023-04-01T21:53:19.795Z,13.05
2023-04-01T21:56:10.282Z,10.90
2023-04-01T21:59:01.944Z,11.75
2023-04-01T22:01:48.490Z,11.40
2023-04-01T22:04:25.740Z,8.38
2023-04-01T22:06:55.729Z,11.15
2023-04-01T22:09:45.175Z,14.73
2023-04-01T22:12:19.878Z,13.82
2023-04-01T22:14:51.565Z,9.73
2023-04-01T22:17:29.937Z,14.23
2023-04-01T22:20:03.528Z,10.90
2023-04-01T22:22:34.855Z,13.95
2023-04-01T22:25:01.368Z,8.98
2023-04-01T22:27:31.493Z,10.70
2023-04-01T22:30:18.052Z,8.32
2023-04-01T22:32:46.053Z,9.98
2023-04-01T22:35:33.655Z,10.15
2023-04-01T22:38:20.038Z,8.55
2023-04-01T22:41:06.204Z,8.10
2023-04-01T22:43:40.371Z,10.20
2023-04-01T22:46:22.043Z,13.55
2023-04-01T22:48:48.383Z,9.07
2023-04-01T22:51:18.331Z,11.20
2023-04-01T22:53:46.887Z,8.98
2023-04-01T22:56:15.952Z,6.38
2023-04-01T22:58:47.899Z,5.60
2023-04-01T23:01:21.372Z,10.77
2023-04-01T23:03:49.040Z,8.10
2023-04-01T23:06:21.009Z,9.63
2023-04-01T23:08:47.146Z,5.35
2023-04-01T23:11:22.257Z,6.63
2023-04-01T23:13:52.950Z,6.18
2023-04-01T23:18:57.651Z,5.90
2023-04-01T23:21:36.496Z,7.07
2023-04-01T23:24:08.067Z,8.10
2023-04-01T23:26:40.019Z,6.43
2023-04-01T23:29:11.658Z,10.25
2023-04-01T23:31:41.746Z,8.45
2023-04-01T23:34:13.628Z,13.27
2023-04-01T23:36:39.417Z,9.40
2023-04-01T23:39:10.021Z,7.20
2023-04-01T23:44:05.399Z,7.85
2023-04-01T23:46:33.691Z,6.03
2023-04-01T23:49:00.946Z,6.22
2023-04-01T23:51:28.973Z,7.20
2023-04-01T23:54:10.730Z,4.78
2023-04-01T23:56:42.825Z,5.22
2023-04-01T23:59:14.328Z,7.78
